sensor_id;sensor_type;location;lat;lon;timestamp;temperature;humidity
23267;DHT22;11802;53.160;8.214;2023-09-08T00:00:41;18.30;1.00
23267;DHT22;11802;53.160;8.214;2023-09-08T00:03:07;18.30;1.00
23267;DHT22;11802;53.160;8.214;2023-09-08T00:05:32;18.30;1.00
23267;DHT22;11802;53.160;8.214;2023-09-08T00:07:58;18.20;1.00
23267;DHT22;11802;53.160;8.214;2023-09-08T00:10:23;18.10;1.00
23267;DHT22;11802;53.160;8.214;2023-09-08T00:12:49;18.10;1.00
23267;DHT22;11802;53.160;8.214;2023-09-08T00:15:14;18.20;1.00
23267;DHT22;11802;53.160;8.214;2023-09-08T00:17:40;18.20;1.00
23267;DHT22;11802;53.160;8.214;2023-09-08T00:20:06;18.20;1.00
23267;DHT22;11802;53.160;8.214;2023-09-08T00:22:35;18.10;1.00
23267;DHT22;11802;53.160;8.214;2023-09-08T00:25:01;18.10;1.00
23267;DHT22;11802;53.160;8.214;2023-09-08T00:27:27;18.00;1.00
23267;DHT22;11802;53.160;8.214;2023-09-08T00:29:52;18.00;1.00
23267;DHT22;11802;53.160;8.214;2023-09-08T00:32:18;18.00;1.00
23267;DHT22;11802;53.160;8.214;2023-09-08T00:34:43;18.00;1.00
23267;DHT22;11802;53.160;8.214;2023-09-08T00:37:09;18.00;1.00
23267;DHT22;11802;53.160;8.214;2023-09-08T00:39:38;18.00;1.00
23267;DHT22;11802;53.160;8.214;2023-09-08T00:42:04;18.00;1.00
23267;DHT22;11802;53.160;8.214;2023-09-08T00:44:30;18.00;1.00
23267;DHT22;11802;53.160;8.214;2023-09-08T00:46:56;17.90;1.00
23267;DHT22;11802;53.160;8.214;2023-09-08T00:49:21;17.90;1.00
23267;DHT22;11802;53.160;8.214;2023-09-08T00:51:47;17.70;1.00
23267;DHT22;11802;53.160;8.214;2023-09-08T00:54:14;17.70;1.00
23267;DHT22;11802;53.160;8.214;2023-09-08T00:56:40;17.70;1.00
23267;DHT22;11802;53.160;8.214;2023-09-08T00:59:06;17.60;1.00
23267;DHT22;11802;53.160;8.214;2023-09-08T01:01:32;17.60;1.00
23267;DHT22;11802;53.160;8.214;2023-09-08T01:04:00;17.60;1.00
23267;DHT22;11802;53.160;8.214;2023-09-08T01:06:26;17.60;1.00
23267;DHT22;11802;53.160;8.214;2023-09-08T01:08:53;17.60;1.00
23267;DHT22;11802;53.160;8.214;2023-09-08T01:11:19;17.50;1.00
23267;DHT22;11802;53.160;8.214;2023-09-08T01:13:45;17.50;1.00
23267;DHT22;11802;53.160;8.214;2023-09-08T01:16:11;17.50;1.00
23267;DHT22;11802;53.160;8.214;2023-09-08T01:18:37;17.40;1.00
23267;DHT22;11802;53.160;8.214;2023-09-08T01:26:37;17.40;8.60
23267;DHT22;11802;53.160;8.214;2023-09-08T01:29:06;17.40;2.30
23267;DHT22;11802;53.160;8.214;2023-09-08T01:31:33;17.40;3.60
23267;DHT22;11802;53.160;8.214;2023-09-08T01:34:00;17.30;14.90
23267;DHT22;11802;53.160;8.214;2023-09-08T01:36:26;17.20;14.90
23267;DHT22;11802;53.160;8.214;2023-09-08T01:38:52;17.20;28.30
23267;DHT22;11802;53.160;8.214;2023-09-08T01:41:17;17.20;29.30
23267;DHT22;11802;53.160;8.214;2023-09-08T01:43:43;17.20;29.20
23267;DHT22;11802;53.160;8.214;2023-09-08T01:46:08;17.30;24.90
23267;DHT22;11802;53.160;8.214;2023-09-08T01:48:34;17.30;16.10
23267;DHT22;11802;53.160;8.214;2023-09-08T01:50:59;17.30;16.50
23267;DHT22;11802;53.160;8.214;2023-09-08T01:53:25;17.20;11.70
23267;DHT22;11802;53.160;8.214;2023-09-08T01:55:50;17.20;10.50
23267;DHT22;11802;53.160;8.214;2023-09-08T01:58:16;17.20;25.80
23267;DHT22;11802;53.160;8.214;2023-09-08T02:00:41;17.20;30.10
23267;DHT22;11802;53.160;8.214;2023-09-08T02:03:07;17.10;37.20
23267;DHT22;11802;53.160;8.214;2023-09-08T02:05:32;17.10;42.80
23267;DHT22;11802;53.160;8.214;2023-09-08T02:07:59;17.10;31.60
23267;DHT22;11802;53.160;8.214;2023-09-08T02:10:25;17.10;28.00
23267;DHT22;11802;53.160;8.214;2023-09-08T02:12:50;17.10;30.30
23267;DHT22;11802;53.160;8.214;2023-09-08T02:15:17;17.10;40.20
23267;DHT22;11802;53.160;8.214;2023-09-08T02:17:42;17.00;42.00
23267;DHT22;11802;53.160;8.214;2023-09-08T02:20:08;17.00;51.30
23267;DHT22;11802;53.160;8.214;2023-09-08T02:22:34;16.90;50.30
23267;DHT22;11802;53.160;8.214;2023-09-08T02:24:59;16.90;59.00
23267;DHT22;11802;53.160;8.214;2023-09-08T02:27:25;16.80;68.80
23267;DHT22;11802;53.160;8.214;2023-09-08T02:29:50;16.80;72.70
23267;DHT22;11802;53.160;8.214;2023-09-08T02:32:16;16.80;76.70
23267;DHT22;11802;53.160;8.214;2023-09-08T02:34:41;16.70;92.70
23267;DHT22;11802;53.160;8.214;2023-09-08T02:37:07;16.70;91.70
23267;DHT22;11802;53.160;8.214;2023-09-08T02:39:33;16.70;91.00
23267;DHT22;11802;53.160;8.214;2023-09-08T02:41:59;16.70;84.60
23267;DHT22;11802;53.160;8.214;2023-09-08T02:44:25;16.70;91.00
23267;DHT22;11802;53.160;8.214;2023-09-08T02:46:52;16.70;85.00
23267;DHT22;11802;53.160;8.214;2023-09-08T02:49:17;16.70;92.30
23267;DHT22;11802;53.160;8.214;2023-09-08T02:51:43;16.60;94.10
23267;DHT22;11802;53.160;8.214;2023-09-08T02:54:08;16.60;99.10
23267;DHT22;11802;53.160;8.214;2023-09-08T02:56:34;16.60;96.00
23267;DHT22;11802;53.160;8.214;2023-09-08T02:58:59;16.60;96.40
23267;DHT22;11802;53.160;8.214;2023-09-08T03:01:25;16.50;99.90
23267;DHT22;11802;53.160;8.214;2023-09-08T03:03:50;16.50;99.90
23267;DHT22;11802;53.160;8.214;2023-09-08T03:06:19;16.50;99.90
23267;DHT22;11802;53.160;8.214;2023-09-08T03:08:45;16.40;99.90
23267;DHT22;11802;53.160;8.214;2023-09-08T03:11:11;16.30;99.90
23267;DHT22;11802;53.160;8.214;2023-09-08T03:13:36;16.40;99.90
23267;DHT22;11802;53.160;8.214;2023-09-08T03:16:06;16.40;99.90
23267;DHT22;11802;53.160;8.214;2023-09-08T03:18:35;16.30;99.90
23267;DHT22;11802;53.160;8.214;2023-09-08T03:21:04;16.30;99.90
23267;DHT22;11802;53.160;8.214;2023-09-08T03:23:40;16.30;99.90
23267;DHT22;11802;53.160;8.214;2023-09-08T03:26:07;16.20;99.90
23267;DHT22;11802;53.160;8.214;2023-09-08T03:28:33;16.20;99.90
23267;DHT22;11802;53.160;8.214;2023-09-08T03:31:00;16.20;99.90
23267;DHT22;11802;53.160;8.214;2023-09-08T03:33:25;16.10;99.90
23267;DHT22;11802;53.160;8.214;2023-09-08T03:35:51;16.10;99.90
23267;DHT22;11802;53.160;8.214;2023-09-08T03:38:17;16.10;99.90
23267;DHT22;11802;53.160;8.214;2023-09-08T03:40:42;16.10;99.90
23267;DHT22;11802;53.160;8.214;2023-09-08T03:43:08;16.00;99.90
23267;DHT22;11802;53.160;8.214;2023-09-08T03:45:33;15.90;99.90
23267;DHT22;11802;53.160;8.214;2023-09-08T03:47:59;15.90;99.90
23267;DHT22;11802;53.160;8.214;2023-09-08T03:50:24;15.90;99.90
23267;DHT22;11802;53.160;8.214;2023-09-08T03:52:50;15.80;99.90
23267;DHT22;11802;53.160;8.214;2023-09-08T03:55:16;15.80;99.90
23267;DHT22;11802;53.160;8.214;2023-09-08T03:57:42;15.80;99.90
23267;DHT22;11802;53.160;8.214;2023-09-08T04:00:08;15.70;99.90
23267;DHT22;11802;53.160;8.214;2023-09-08T04:02:36;15.70;99.90
23267;DHT22;11802;53.160;8.214;2023-09-08T04:05:02;15.70;99.90
23267;DHT22;11802;53.160;8.214;2023-09-08T04:07:28;15.70;99.90
23267;DHT22;11802;53.160;8.214;2023-09-08T04:09:53;15.70;99.90
23267;DHT22;11802;53.160;8.214;2023-09-08T04:12:19;15.60;99.90
23267;DHT22;11802;53.160;8.214;2023-09-08T04:14:44;15.60;99.90
23267;DHT22;11802;53.160;8.214;2023-09-08T04:17:10;15.50;99.90
23267;DHT22;11802;53.160;8.214;2023-09-08T04:19:35;15.50;99.90
23267;DHT22;11802;53.160;8.214;2023-09-08T04:22:01;15.50;99.90
23267;DHT22;11802;53.160;8.214;2023-09-08T04:24:26;15.40;99.90
23267;DHT22;11802;53.160;8.214;2023-09-08T04:26:52;15.30;99.90
23267;DHT22;11802;53.160;8.214;2023-09-08T04:29:18;15.30;99.90
23267;DHT22;11802;53.160;8.214;2023-09-08T04:31:43;15.30;99.90
23267;DHT22;11802;53.160;8.214;2023-09-08T04:34:09;15.40;99.90
23267;DHT22;11802;53.160;8.214;2023-09-08T04:36:34;15.30;99.90
23267;DHT22;11802;53.160;8.214;2023-09-08T04:39:00;15.30;99.90
23267;DHT22;11802;53.160;8.214;2023-09-08T04:41:26;15.30;99.90
23267;DHT22;11802;53.160;8.214;2023-09-08T04:43:51;15.40;99.90
23267;DHT22;11802;53.160;8.214;2023-09-08T04:46:18;15.40;99.90
23267;DHT22;11802;53.160;8.214;2023-09-08T04:48:43;15.40;99.90
23267;DHT22;11802;53.160;8.214;2023-09-08T04:51:09;15.40;99.90
23267;DHT22;11802;53.160;8.214;2023-09-08T04:53:34;15.40;99.90
23267;DHT22;11802;53.160;8.214;2023-09-08T04:56:01;15.40;99.90
23267;DHT22;11802;53.160;8.214;2023-09-08T04:58:27;15.40;99.90
23267;DHT22;11802;53.160;8.214;2023-09-08T05:00:52;15.40;99.90
23267;DHT22;11802;53.160;8.214;2023-09-08T05:03:18;15.40;99.90
23267;DHT22;11802;53.160;8.214;2023-09-08T05:05:44;15.40;99.90
23267;DHT22;11802;53.160;8.214;2023-09-08T05:08:10;15.40;99.90
23267;DHT22;11802;53.160;8.214;2023-09-08T05:10:35;15.40;99.90
23267;DHT22;11802;53.160;8.214;2023-09-08T05:13:01;15.40;99.90
23267;DHT22;11802;53.160;8.214;2023-09-08T05:15:26;15.40;99.90
23267;DHT22;11802;53.160;8.214;2023-09-08T05:17:52;15.40;99.90
23267;DHT22;11802;53.160;8.214;2023-09-08T05:20:18;15.50;99.90
23267;DHT22;11802;53.160;8.214;2023-09-08T05:22:43;15.50;99.90
23267;DHT22;11802;53.160;8.214;2023-09-08T05:25:09;15.50;99.90
23267;DHT22;11802;53.160;8.214;2023-09-08T05:27:35;15.60;99.90
23267;DHT22;11802;53.160;8.214;2023-09-08T05:30:01;15.60;99.90
23267;DHT22;11802;53.160;8.214;2023-09-08T05:32:27;15.70;99.90
23267;DHT22;11802;53.160;8.214;2023-09-08T05:34:52;15.80;99.90
23267;DHT22;11802;53.160;8.214;2023-09-08T05:37:18;15.90;99.90
23267;DHT22;11802;53.160;8.214;2023-09-08T05:39:43;15.90;99.90
23267;DHT22;11802;53.160;8.214;2023-09-08T05:42:09;15.90;99.90
23267;DHT22;11802;53.160;8.214;2023-09-08T05:44:34;16.00;99.90
23267;DHT22;11802;53.160;8.214;2023-09-08T05:47:00;16.10;99.90
23267;DHT22;11802;53.160;8.214;2023-09-08T05:49:26;16.10;99.90
23267;DHT22;11802;53.160;8.214;2023-09-08T05:51:52;16.20;99.90
23267;DHT22;11802;53.160;8.214;2023-09-08T05:54:17;16.20;99.90
23267;DHT22;11802;53.160;8.214;2023-09-08T05:56:44;16.30;99.90
23267;DHT22;11802;53.160;8.214;2023-09-08T05:59:09;16.40;99.90
23267;DHT22;11802;53.160;8.214;2023-09-08T06:01:36;16.50;99.90
23267;DHT22;11802;53.160;8.214;2023-09-08T06:04:02;16.60;99.90
23267;DHT22;11802;53.160;8.214;2023-09-08T06:06:28;16.70;99.90
23267;DHT22;11802;53.160;8.214;2023-09-08T06:08:54;16.70;99.90
23267;DHT22;11802;53.160;8.214;2023-09-08T06:11:19;16.80;99.90
23267;DHT22;11802;53.160;8.214;2023-09-08T06:13:45;16.80;99.90
23267;DHT22;11802;53.160;8.214;2023-09-08T06:16:11;16.90;99.90
23267;DHT22;11802;53.160;8.214;2023-09-08T06:18:36;17.00;99.90
23267;DHT22;11802;53.160;8.214;2023-09-08T06:21:08;17.10;99.90
23267;DHT22;11802;53.160;8.214;2023-09-08T06:23:34;17.70;94.40
23267;DHT22;11802;53.160;8.214;2023-09-08T06:26:00;19.10;1.00
23267;DHT22;11802;53.160;8.214;2023-09-08T06:28:29;20.60;1.00
23267;DHT22;11802;53.160;8.214;2023-09-08T06:30:55;22.00;1.00
23267;DHT22;11802;53.160;8.214;2023-09-08T06:33:21;23.00;1.00
23267;DHT22;11802;53.160;8.214;2023-09-08T06:35:47;24.00;1.00
23267;DHT22;11802;53.160;8.214;2023-09-08T06:38:13;25.10;99.90
23267;DHT22;11802;53.160;8.214;2023-09-08T06:40:39;25.80;1.00
23267;DHT22;11802;53.160;8.214;2023-09-08T06:43:05;26.70;1.00
23267;DHT22;11802;53.160;8.214;2023-09-08T06:45:30;27.30;1.00
23267;DHT22;11802;53.160;8.214;2023-09-08T06:47:56;26.90;1.00
23267;DHT22;11802;53.160;8.214;2023-09-08T06:50:22;26.80;1.00
23267;DHT22;11802;53.160;8.214;2023-09-08T06:52:51;27.20;1.00
23267;DHT22;11802;53.160;8.214;2023-09-08T06:55:17;28.20;1.00
23267;DHT22;11802;53.160;8.214;2023-09-08T06:57:44;28.90;1.00
23267;DHT22;11802;53.160;8.214;2023-09-08T07:00:10;28.70;1.00
23267;DHT22;11802;53.160;8.214;2023-09-08T07:02:37;29.00;99.90
23267;DHT22;11802;53.160;8.214;2023-09-08T07:05:03;29.00;99.90
23267;DHT22;11802;53.160;8.214;2023-09-08T07:07:36;29.30;99.90
23267;DHT22;11802;53.160;8.214;2023-09-08T07:10:05;29.60;99.90
23267;DHT22;11802;53.160;8.214;2023-09-08T07:12:31;30.00;99.90
23267;DHT22;11802;53.160;8.214;2023-09-08T07:14:57;29.80;99.90
23267;DHT22;11802;53.160;8.214;2023-09-08T07:17:22;30.60;99.90
23267;DHT22;11802;53.160;8.214;2023-09-08T07:19:51;30.90;99.90
23267;DHT22;11802;53.160;8.214;2023-09-08T07:22:16;31.30;99.90
23267;DHT22;11802;53.160;8.214;2023-09-08T07:24:42;31.60;99.90
23267;DHT22;11802;53.160;8.214;2023-09-08T07:27:08;31.30;99.90
23267;DHT22;11802;53.160;8.214;2023-09-08T07:29:33;32.00;99.90
23267;DHT22;11802;53.160;8.214;2023-09-08T07:31:59;32.30;99.90
23267;DHT22;11802;53.160;8.214;2023-09-08T07:34:28;32.40;99.90
23267;DHT22;11802;53.160;8.214;2023-09-08T07:36:54;32.30;99.90
23267;DHT22;11802;53.160;8.214;2023-09-08T07:39:24;32.60;99.90
23267;DHT22;11802;53.160;8.214;2023-09-08T07:41:53;32.20;99.90
23267;DHT22;11802;53.160;8.214;2023-09-08T07:44:20;31.80;99.90
23267;DHT22;11802;53.160;8.214;2023-09-08T07:46:45;31.70;99.90
23267;DHT22;11802;53.160;8.214;2023-09-08T07:49:36;32.20;99.90
23267;DHT22;11802;53.160;8.214;2023-09-08T07:52:07;32.30;99.90
23267;DHT22;11802;53.160;8.214;2023-09-08T07:54:33;32.50;99.90
23267;DHT22;11802;53.160;8.214;2023-09-08T07:56:58;32.90;99.90
23267;DHT22;11802;53.160;8.214;2023-09-08T07:59:24;33.00;99.90
23267;DHT22;11802;53.160;8.214;2023-09-08T08:01:50;33.20;99.90
23267;DHT22;11802;53.160;8.214;2023-09-08T08:04:16;33.30;99.90
23267;DHT22;11802;53.160;8.214;2023-09-08T08:06:41;33.80;99.90
23267;DHT22;11802;53.160;8.214;2023-09-08T08:09:07;34.20;99.90
23267;DHT22;11802;53.160;8.214;2023-09-08T08:11:32;33.50;99.90
23267;DHT22;11802;53.160;8.214;2023-09-08T08:13:58;33.30;99.90
23267;DHT22;11802;53.160;8.214;2023-09-08T08:16:24;33.70;99.90
23267;DHT22;11802;53.160;8.214;2023-09-08T08:18:49;34.10;99.90
23267;DHT22;11802;53.160;8.214;2023-09-08T08:21:15;34.40;99.90
23267;DHT22;11802;53.160;8.214;2023-09-08T08:23:41;33.80;99.90
23267;DHT22;11802;53.160;8.214;2023-09-08T08:26:06;33.30;99.90
23267;DHT22;11802;53.160;8.214;2023-09-08T08:28:32;33.70;99.90
23267;DHT22;11802;53.160;8.214;2023-09-08T08:30:58;33.30;99.90
23267;DHT22;11802;53.160;8.214;2023-09-08T08:33:23;33.30;99.90
23267;DHT22;11802;53.160;8.214;2023-09-08T08:35:51;33.50;99.90
23267;DHT22;11802;53.160;8.214;2023-09-08T08:38:18;34.50;99.90
23267;DHT22;11802;53.160;8.214;2023-09-08T08:40:45;34.10;99.90
23267;DHT22;11802;53.160;8.214;2023-09-08T08:43:11;33.80;99.90
23267;DHT22;11802;53.160;8.214;2023-09-08T08:45:42;33.40;99.90
23267;DHT22;11802;53.160;8.214;2023-09-08T08:48:08;34.10;99.90
23267;DHT22;11802;53.160;8.214;2023-09-08T08:50:35;34.40;99.90
23267;DHT22;11802;53.160;8.214;2023-09-08T08:53:02;34.80;99.90
23267;DHT22;11802;53.160;8.214;2023-09-08T08:55:29;34.50;99.90
23267;DHT22;11802;53.160;8.214;2023-09-08T08:58:01;34.40;99.90
23267;DHT22;11802;53.160;8.214;2023-09-08T09:00:28;34.00;99.90
23267;DHT22;11802;53.160;8.214;2023-09-08T09:02:55;34.40;99.90
23267;DHT22;11802;53.160;8.214;2023-09-08T09:05:23;34.40;99.90
23267;DHT22;11802;53.160;8.214;2023-09-08T09:07:50;34.40;99.90
23267;DHT22;11802;53.160;8.214;2023-09-08T09:10:16;34.00;99.90
23267;DHT22;11802;53.160;8.214;2023-09-08T09:12:42;34.20;99.90
23267;DHT22;11802;53.160;8.214;2023-09-08T09:15:08;33.90;99.90
23267;DHT22;11802;53.160;8.214;2023-09-08T09:17:36;33.30;99.90
23267;DHT22;11802;53.160;8.214;2023-09-08T09:20:19;33.40;99.90
23267;DHT22;11802;53.160;8.214;2023-09-08T09:22:47;33.20;99.90
23267;DHT22;11802;53.160;8.214;2023-09-08T09:25:29;32.80;99.90
23267;DHT22;11802;53.160;8.214;2023-09-08T09:28:00;33.00;99.90
23267;DHT22;11802;53.160;8.214;2023-09-08T09:30:47;33.00;99.90
23267;DHT22;11802;53.160;8.214;2023-09-08T09:33:19;33.70;99.90
23267;DHT22;11802;53.160;8.214;2023-09-08T09:35:57;34.10;99.90
23267;DHT22;11802;53.160;8.214;2023-09-08T09:38:35;34.30;99.90
23267;DHT22;11802;53.160;8.214;2023-09-08T09:41:18;34.50;99.90
23267;DHT22;11802;53.160;8.214;2023-09-08T09:43:49;34.50;99.90
23267;DHT22;11802;53.160;8.214;2023-09-08T09:46:19;34.40;99.90
23267;DHT22;11802;53.160;8.214;2023-09-08T09:48:50;34.00;99.90
23267;DHT22;11802;53.160;8.214;2023-09-08T09:51:19;34.60;99.90
23267;DHT22;11802;53.160;8.214;2023-09-08T09:53:45;34.70;99.90
23267;DHT22;11802;53.160;8.214;2023-09-08T09:56:11;34.90;99.90
23267;DHT22;11802;53.160;8.214;2023-09-08T09:58:37;35.20;99.90
23267;DHT22;11802;53.160;8.214;2023-09-08T10:01:04;35.20;99.90
23267;DHT22;11802;53.160;8.214;2023-09-08T10:03:31;35.30;99.90
23267;DHT22;11802;53.160;8.214;2023-09-08T10:05:59;35.20;99.90
23267;DHT22;11802;53.160;8.214;2023-09-08T10:08:25;35.30;99.90
23267;DHT22;11802;53.160;8.214;2023-09-08T10:10:50;34.70;99.90
23267;DHT22;11802;53.160;8.214;2023-09-08T10:13:26;34.70;99.90
23267;DHT22;11802;53.160;8.214;2023-09-08T10:15:57;34.40;99.90
23267;DHT22;11802;53.160;8.214;2023-09-08T10:18:24;34.20;99.90
23267;DHT22;11802;53.160;8.214;2023-09-08T10:20:52;33.80;99.90
23267;DHT22;11802;53.160;8.214;2023-09-08T10:23:36;33.80;99.90
23267;DHT22;11802;53.160;8.214;2023-09-08T10:26:04;33.70;99.90
23267;DHT22;11802;53.160;8.214;2023-09-08T10:28:34;34.00;99.90
23267;DHT22;11802;53.160;8.214;2023-09-08T10:31:01;34.10;99.90
23267;DHT22;11802;53.160;8.214;2023-09-08T10:33:27;34.20;99.90
23267;DHT22;11802;53.160;8.214;2023-09-08T10:35:53;33.60;99.90
23267;DHT22;11802;53.160;8.214;2023-09-08T10:38:25;33.80;99.90
23267;DHT22;11802;53.160;8.214;2023-09-08T10:40:52;34.00;99.90
23267;DHT22;11802;53.160;8.214;2023-09-08T10:43:18;34.40;99.90
23267;DHT22;11802;53.160;8.214;2023-09-08T10:45:46;34.20;99.90
23267;DHT22;11802;53.160;8.214;2023-09-08T10:48:12;33.80;99.90
23267;DHT22;11802;53.160;8.214;2023-09-08T10:50:40;33.00;99.90
23267;DHT22;11802;53.160;8.214;2023-09-08T10:55:49;33.50;99.90
23267;DHT22;11802;53.160;8.214;2023-09-08T11:00:47;33.80;99.90
23267;DHT22;11802;53.160;8.214;2023-09-08T11:03:14;33.80;99.90
23267;DHT22;11802;53.160;8.214;2023-09-08T11:05:50;33.40;99.90
23267;DHT22;11802;53.160;8.214;2023-09-08T11:08:18;32.90;99.90
23267;DHT22;11802;53.160;8.214;2023-09-08T11:10:44;32.90;99.90
23267;DHT22;11802;53.160;8.214;2023-09-08T11:13:10;33.00;99.90
23267;DHT22;11802;53.160;8.214;2023-09-08T11:15:37;32.30;99.90
23267;DHT22;11802;53.160;8.214;2023-09-08T11:18:07;32.00;99.90
23267;DHT22;11802;53.160;8.214;2023-09-08T11:20:34;32.10;99.90
23267;DHT22;11802;53.160;8.214;2023-09-08T11:22:59;32.60;99.90
23267;DHT22;11802;53.160;8.214;2023-09-08T11:25:25;33.10;99.90
23267;DHT22;11802;53.160;8.214;2023-09-08T11:27:50;33.20;99.90
23267;DHT22;11802;53.160;8.214;2023-09-08T11:30:16;33.20;99.90
23267;DHT22;11802;53.160;8.214;2023-09-08T11:32:42;33.20;99.90
23267;DHT22;11802;53.160;8.214;2023-09-08T11:35:09;33.20;99.90
23267;DHT22;11802;53.160;8.214;2023-09-08T11:37:40;33.20;99.90
23267;DHT22;11802;53.160;8.214;2023-09-08T11:40:07;33.10;99.90
23267;DHT22;11802;53.160;8.214;2023-09-08T11:42:40;33.00;99.90
23267;DHT22;11802;53.160;8.214;2023-09-08T11:45:13;32.80;99.90
23267;DHT22;11802;53.160;8.214;2023-09-08T11:47:41;32.70;99.90
23267;DHT22;11802;53.160;8.214;2023-09-08T11:50:11;32.70;99.90
23267;DHT22;11802;53.160;8.214;2023-09-08T11:52:50;32.70;99.90
23267;DHT22;11802;53.160;8.214;2023-09-08T11:55:17;32.60;99.90
23267;DHT22;11802;53.160;8.214;2023-09-08T11:57:47;32.70;99.90
23267;DHT22;11802;53.160;8.214;2023-09-08T12:00:14;32.40;99.90
23267;DHT22;11802;53.160;8.214;2023-09-08T12:02:43;32.50;99.90
23267;DHT22;11802;53.160;8.214;2023-09-08T12:05:26;32.70;99.90
23267;DHT22;11802;53.160;8.214;2023-09-08T12:07:53;32.70;99.90
23267;DHT22;11802;53.160;8.214;2023-09-08T12:10:19;32.70;99.90
23267;DHT22;11802;53.160;8.214;2023-09-08T12:12:47;32.80;99.90
23267;DHT22;11802;53.160;8.214;2023-09-08T12:15:32;33.00;99.90
23267;DHT22;11802;53.160;8.214;2023-09-08T12:18:04;32.90;96.10
23267;DHT22;11802;53.160;8.214;2023-09-08T12:20:31;32.80;99.90
23267;DHT22;11802;53.160;8.214;2023-09-08T12:23:00;32.60;99.90
23267;DHT22;11802;53.160;8.214;2023-09-08T12:25:27;32.60;99.90
23267;DHT22;11802;53.160;8.214;2023-09-08T12:27:53;32.70;99.90
23267;DHT22;11802;53.160;8.214;2023-09-08T12:30:21;32.80;99.90
23267;DHT22;11802;53.160;8.214;2023-09-08T12:32:48;32.80;99.10
23267;DHT22;11802;53.160;8.214;2023-09-08T12:35:20;32.40;98.20
23267;DHT22;11802;53.160;8.214;2023-09-08T12:37:46;32.20;99.90
23267;DHT22;11802;53.160;8.214;2023-09-08T12:40:12;32.50;99.40
23267;DHT22;11802;53.160;8.214;2023-09-08T12:42:38;32.20;85.70
23267;DHT22;11802;53.160;8.214;2023-09-08T12:45:04;32.10;90.40
23267;DHT22;11802;53.160;8.214;2023-09-08T12:47:29;32.10;90.50
23267;DHT22;11802;53.160;8.214;2023-09-08T12:49:55;32.00;90.50
23267;DHT22;11802;53.160;8.214;2023-09-08T12:52:21;32.00;78.40
23267;DHT22;11802;53.160;8.214;2023-09-08T12:54:46;32.20;79.50
23267;DHT22;11802;53.160;8.214;2023-09-08T12:57:12;32.30;74.70
23267;DHT22;11802;53.160;8.214;2023-09-08T12:59:37;32.50;62.70
23267;DHT22;11802;53.160;8.214;2023-09-08T13:02:03;32.70;56.70
23267;DHT22;11802;53.160;8.214;2023-09-08T13:04:29;32.70;54.60
23267;DHT22;11802;53.160;8.214;2023-09-08T13:06:54;32.80;57.30
23267;DHT22;11802;53.160;8.214;2023-09-08T13:09:20;32.90;55.00
23267;DHT22;11802;53.160;8.214;2023-09-08T13:11:46;32.80;54.20
23267;DHT22;11802;53.160;8.214;2023-09-08T13:14:12;32.50;52.00
23267;DHT22;11802;53.160;8.214;2023-09-08T13:16:37;32.50;51.80
23267;DHT22;11802;53.160;8.214;2023-09-08T13:19:03;32.30;56.70
23267;DHT22;11802;53.160;8.214;2023-09-08T13:21:28;32.30;56.90
23267;DHT22;11802;53.160;8.214;2023-09-08T13:23:54;32.10;57.10
23267;DHT22;11802;53.160;8.214;2023-09-08T13:26:20;32.10;61.00
23267;DHT22;11802;53.160;8.214;2023-09-08T13:28:45;32.10;59.20
23267;DHT22;11802;53.160;8.214;2023-09-08T13:31:10;32.10;62.20
23267;DHT22;11802;53.160;8.214;2023-09-08T13:33:36;32.00;56.70
23267;DHT22;11802;53.160;8.214;2023-09-08T13:36:02;32.00;60.30
23267;DHT22;11802;53.160;8.214;2023-09-08T13:38:27;32.00;63.60
23267;DHT22;11802;53.160;8.214;2023-09-08T13:40:53;32.10;70.10
23267;DHT22;11802;53.160;8.214;2023-09-08T13:43:18;32.20;68.80
23267;DHT22;11802;53.160;8.214;2023-09-08T13:45:44;32.20;63.80
23267;DHT22;11802;53.160;8.214;2023-09-08T13:48:09;32.10;58.90
23267;DHT22;11802;53.160;8.214;2023-09-08T13:50:37;32.20;65.10
23267;DHT22;11802;53.160;8.214;2023-09-08T13:53:03;32.10;60.80
23267;DHT22;11802;53.160;8.214;2023-09-08T13:55:28;32.00;68.90
23267;DHT22;11802;53.160;8.214;2023-09-08T13:57:54;31.90;62.70
23267;DHT22;11802;53.160;8.214;2023-09-08T14:00:19;31.90;66.60
23267;DHT22;11802;53.160;8.214;2023-09-08T14:02:45;31.90;73.90
23267;DHT22;11802;53.160;8.214;2023-09-08T14:05:11;31.70;66.00
23267;DHT22;11802;53.160;8.214;2023-09-08T14:07:36;31.60;78.50
23267;DHT22;11802;53.160;8.214;2023-09-08T14:10:02;31.40;76.50
23267;DHT22;11802;53.160;8.214;2023-09-08T14:12:33;31.40;77.30
23267;DHT22;11802;53.160;8.214;2023-09-08T14:14:58;31.30;85.60
23267;DHT22;11802;53.160;8.214;2023-09-08T14:17:24;31.40;82.00
23267;DHT22;11802;53.160;8.214;2023-09-08T14:19:49;31.30;70.20
23267;DHT22;11802;53.160;8.214;2023-09-08T14:22:15;31.30;69.50
23267;DHT22;11802;53.160;8.214;2023-09-08T14:24:40;31.20;74.60
23267;DHT22;11802;53.160;8.214;2023-09-08T14:27:06;31.20;80.70
23267;DHT22;11802;53.160;8.214;2023-09-08T14:29:33;31.20;85.60
23267;DHT22;11802;53.160;8.214;2023-09-08T14:31:58;31.30;92.40
23267;DHT22;11802;53.160;8.214;2023-09-08T14:34:24;31.20;91.90
23267;DHT22;11802;53.160;8.214;2023-09-08T14:36:49;31.20;91.50
23267;DHT22;11802;53.160;8.214;2023-09-08T14:39:15;31.20;94.60
23267;DHT22;11802;53.160;8.214;2023-09-08T14:41:42;31.00;96.90
23267;DHT22;11802;53.160;8.214;2023-09-08T14:44:08;30.90;95.70
23267;DHT22;11802;53.160;8.214;2023-09-08T14:46:33;30.90;94.50
23267;DHT22;11802;53.160;8.214;2023-09-08T14:48:59;30.80;98.00
23267;DHT22;11802;53.160;8.214;2023-09-08T14:51:24;30.70;96.50
23267;DHT22;11802;53.160;8.214;2023-09-08T14:53:50;30.70;99.90
23267;DHT22;11802;53.160;8.214;2023-09-08T14:56:15;30.60;99.00
23267;DHT22;11802;53.160;8.214;2023-09-08T14:58:41;30.60;99.10
23267;DHT22;11802;53.160;8.214;2023-09-08T15:01:06;30.60;97.10
23267;DHT22;11802;53.160;8.214;2023-09-08T15:03:34;30.60;98.50
23267;DHT22;11802;53.160;8.214;2023-09-08T15:05:59;30.70;99.50
23267;DHT22;11802;53.160;8.214;2023-09-08T15:08:25;30.70;99.90
23267;DHT22;11802;53.160;8.214;2023-09-08T15:10:51;30.60;99.90
23267;DHT22;11802;53.160;8.214;2023-09-08T15:13:17;30.70;99.90
23267;DHT22;11802;53.160;8.214;2023-09-08T15:15:42;30.60;99.90
23267;DHT22;11802;53.160;8.214;2023-09-08T15:18:08;30.50;95.60
23267;DHT22;11802;53.160;8.214;2023-09-08T15:20:33;30.40;97.60
23267;DHT22;11802;53.160;8.214;2023-09-08T15:22:59;30.40;96.90
23267;DHT22;11802;53.160;8.214;2023-09-08T15:25:24;30.40;99.90
23267;DHT22;11802;53.160;8.214;2023-09-08T15:27:50;30.40;95.00
23267;DHT22;11802;53.160;8.214;2023-09-08T15:30:15;30.40;95.60
23267;DHT22;11802;53.160;8.214;2023-09-08T15:32:41;30.40;94.40
23267;DHT22;11802;53.160;8.214;2023-09-08T15:35:07;30.30;98.10
23267;DHT22;11802;53.160;8.214;2023-09-08T15:37:33;30.30;99.90
23267;DHT22;11802;53.160;8.214;2023-09-08T15:40:00;30.20;95.80